Flight Track Log - Related Links

Times and Time Zones

All times are in EDT time to prevent confusion due to time zone crossing. See the CSN6088 flight status page for this flight to view local times or setup timezone preferences in your user account.

Time Position Orientation Groundspeed Altitude Reporting Facility
EDT Latitude Longitude Course Direction KTS MPH feet Rate Location/Type
Sat 12:33:00 AM 37.5437 126.4801 17° North  Level Estimated
Sat 12:34:00 AM 37.6183 126.5097 17° North  Level Estimated
Sat 12:35:00 AM 37.6929 126.5394 17° North  Level Estimated
Sat 12:36:00 AM 37.7675 126.5692 17° North  Level Estimated
Sat 12:37:00 AM 37.8421 126.5990 18° North  Level Estimated
Sat 12:38:00 AM 37.9167 126.6288 18° North  Level Estimated
Sat 12:39:00 AM 37.9913 126.6588 18° North  Level Estimated
Sat 12:40:00 AM 38.0659 126.6888 18° North  Level Estimated
Sat 12:41:00 AM 38.1404 126.7188 18° North  Level Estimated
Sat 12:42:00 AM 38.2150 126.7489 18° North  Level Estimated
Sat 12:43:00 AM 38.2895 126.7791 18° North  Level Estimated
Sat 12:44:00 AM 38.3641 126.8093 18° North  Level Estimated
Sat 12:45:00 AM 38.4386 126.8396 18° North  Level Estimated
Sat 12:46:00 AM 38.5131 126.8700 18° North  Level Estimated
Sat 12:47:00 AM 38.5877 126.9004 18° North  Level Estimated
Sat 12:48:00 AM 38.6622 126.9309 18° North  Level Estimated
Sat 12:49:00 AM 38.7367 126.9614 18° North  Level Estimated
Sat 12:50:00 AM 38.8111 126.9920 18° North  Level Estimated
Sat 12:51:00 AM 38.8856 127.0227 18° North  Level Estimated
Sat 12:52:00 AM 38.9601 127.0535 18° North  Level Estimated
Sat 12:53:00 AM 39.0346 127.0843 18° North  Level Estimated
Sat 12:54:00 AM 39.1091 127.1151 18° North  Level Estimated
Sat 12:55:00 AM 39.1835 127.1461 18° North  Level Estimated
Sat 12:56:00 AM 39.2579 127.1771 18° North  Level Estimated
Sat 12:57:00 AM 39.3324 127.2082 18° North  Level Estimated
Sat 12:58:00 AM 39.4068 127.2393 18° North  Level Estimated
Sat 12:59:00 AM 39.4812 127.2705 18° North  Level Estimated
Sat 01:00:00 AM 39.5556 127.3018 18° North  Level Estimated
Sat 01:01:00 AM 39.6301 127.3331 18° North  Level Estimated
Sat 01:02:00 AM 39.7044 127.3645 18° North  Level Estimated
Sat 01:03:00 AM 39.7788 127.3960 18° North  Level Estimated
Sat 01:04:00 AM 39.8532 127.4275 18° North  Level Estimated
Sat 01:05:00 AM 39.9276 127.4591 18° North  Level Estimated
Sat 01:06:00 AM 40.0019 127.4908 18° North  Level Estimated
Sat 01:07:00 AM 40.0763 127.5225 18° North  Level Estimated
Sat 01:08:00 AM 40.1506 127.5543 18° North  Level Estimated
Sat 01:09:00 AM 40.2250 127.5862 18° North  Level Estimated
Sat 01:10:00 AM 40.2993 127.6181 18° North  Level Estimated
Sat 01:11:00 AM 40.3736 127.6502 18° North  Level Estimated
Sat 01:12:00 AM 40.4479 127.6823 18° North  Level Estimated
Sat 01:13:00 AM 40.5222 127.7144 18° North  Level Estimated
Sat 01:14:00 AM 40.5965 127.7467 18° North  Level Estimated
Sat 01:15:00 AM 40.6708 127.7790 18° North  Level Estimated
Sat 01:16:00 AM 40.7451 127.8114 18° North  Level Estimated
Sat 01:17:00 AM 40.8193 127.8438 18° North  Level Estimated
Sat 01:18:00 AM 40.8936 127.8763 18° North  Level Estimated
Sat 01:19:00 AM 40.9678 127.9089 18° North  Level Estimated
Sat 01:20:00 AM 41.0421 127.9416 18° North  Level Estimated
Sat 01:21:00 AM 41.1163 127.9744 18° North  Level Estimated
Sat 01:22:00 AM 41.1905 128.0072 18° North  Level Estimated
Sat 01:23:00 AM 41.2647 128.0401 18° North  Level Estimated
Sat 01:24:00 AM 41.3389 128.0730 18° North  Level Estimated
Sat 01:25:00 AM 41.4131 128.1061 18° North  Level Estimated
Sat 01:26:00 AM 41.4873 128.1392 18° North  Level Estimated
Sat 01:27:00 AM 41.5615 128.1724 19° North  Level Estimated
Sat 01:28:00 AM 41.6356 128.2057 19° North  Level Estimated
Sat 01:29:00 AM 41.7098 128.2390 19° North  Level Estimated
Sat 01:30:00 AM 41.7839 128.2724 19° North  Level Estimated
Sat 01:31:00 AM 41.8581 128.3060 19° North  Level Estimated
Sat 01:32:00 AM 41.9322 128.3395 19° North  Level Estimated
Sat 01:33:00 AM 42.0063 128.3732 19° North  Level Estimated
Sat 01:34:00 AM 42.0804 128.4069 19° North  Level Estimated
Sat 01:35:00 AM 42.1545 128.4408 19° North  Level Estimated
Sat 01:36:00 AM 42.2286 128.4747 19° North  Level Estimated
Sat 01:37:00 AM 42.3026 128.5086 19° North  Level Estimated
Sat 01:38:00 AM 42.3767 128.5427 19° North  Level Estimated
Sat 01:39:00 AM 42.4507 128.5768 19° North  Level Estimated
Sat 01:40:00 AM 42.5248 128.6111 19° North  Level Estimated
Sat 01:41:00 AM 42.5988 128.6454 19° North  Level Estimated
Sat 01:42:00 AM 42.6728 128.6797 19° North  Level Estimated
Sat 01:43:00 AM 42.7468 128.7142 19° North  Level Estimated
Sat 01:44:00 AM 42.8208 128.7487 19° North  Level Estimated
Sat 01:45:00 AM 42.8948 128.7834 19° North  Level Estimated
Sat 01:46:00 AM 42.9688 128.8181 19° North  Level Estimated
Sat 01:47:00 AM 43.0428 128.8529 19° North  Level Estimated
Sat 01:48:00 AM 43.1167 128.8877 19° North  Level Estimated
Sat 01:49:00 AM 43.1907 128.9227 19° North  Level Estimated
Sat 01:50:00 AM 43.2646 128.9577 19° North  Level Estimated
Sat 01:51:00 AM 43.3386 128.9929 19° North  Level Estimated
Sat 01:52:00 AM 43.4125 129.0281 19° North  Level Estimated
Sat 01:53:00 AM 43.4864 129.0634 19° North  Level Estimated
Sat 01:54:00 AM 43.5603 129.0988 19° North  Level Estimated
Sat 01:55:00 AM 43.6342 129.1343 19° North  Level Estimated
Sat 01:56:00 AM 43.7080 129.1698 19° North  Level Estimated
Sat 01:57:00 AM 43.7819 129.2055 19° North  Level Estimated
Sat 01:58:00 AM 43.8558 129.2412 19° North  Level Estimated
Sat 01:59:00 AM 43.9296 129.2771 19° North  Level Estimated
Sat 02:00:00 AM 44.0034 129.3130 19° North  Level Estimated
Sat 02:01:00 AM 44.0772 129.3490 19° North  Level Estimated
Sat 02:02:00 AM 44.1511 129.3851 19° North  Level Estimated
Sat 02:03:00 AM 44.2248 129.4212 19° North  Level Estimated
Sat 02:04:00 AM 44.2986 129.4575 19° North  Level Estimated
Sat 02:05:00 AM 44.3724 129.4939 19° North  Level Estimated
Sat 02:06:00 AM 44.4462 129.5304 19° North  Level Estimated
Sat 02:07:00 AM 44.5199 129.5669 19° North  Level Estimated
Sat 02:08:00 AM 44.5241 129.5690 19° North  Level Estimated
Sat 02:09:00 AM 44.5241 129.5690 35° Northeast  Level Estimated
Sat 02:10:00 AM 44.5241 129.5690 35° Northeast  Level Estimated
Sat 02:11:00 AM 44.5241 129.5690 35° Northeast  Level Estimated
Sat 02:12:00 AM 44.5241 129.5690 35° Northeast  Level Estimated
Sat 02:13:00 AM 44.5241 129.5690 35° Northeast  Level Estimated
Sat 02:14:00 AM 44.5241 129.5690 35° Northeast  Level Estimated
Sat 02:15:00 AM 44.5241 129.5690 35° Northeast  Level Estimated
Sat 02:16:00 AM 44.5241 129.5690 35° Northeast  Level Estimated
Sat 02:17:00 AM 44.5241 129.5690 35° Northeast  Level Estimated
Sat 02:18:00 AM 44.5241 129.5690 35° Northeast  Level Estimated
Sat 02:19:00 AM 44.5241 129.5690 35° Northeast  Level Estimated
Sat 02:20:00 AM 44.5241 129.5690 35° Northeast  Level Estimated
Sat 02:21:00 AM 44.5241 129.5690 35° Northeast  Level Estimated
Sat 02:22:00 AM 44.5241 129.5690 35° Northeast  Level Estimated

Login

Don't have an account? Register now (free) for customized features, flight alerts, and more!